sensor_id;sensor_type;location;lat;lon;timestamp;P1;durP1;ratioP1;P2;durP2;ratioP2
67747;SDS011;54543;50.712;6.070;2023-07-20T00:01:40;3.92;;;2.25;;
67747;SDS011;54543;50.712;6.070;2023-07-20T00:04:10;4.15;;;2.33;;
67747;SDS011;54543;50.712;6.070;2023-07-20T00:06:36;4.78;;;2.42;;
67747;SDS011;54543;50.712;6.070;2023-07-20T00:09:05;4.45;;;2.30;;
67747;SDS011;54543;50.712;6.070;2023-07-20T00:11:35;3.97;;;2.45;;
67747;SDS011;54543;50.712;6.070;2023-07-20T00:14:03;3.55;;;2.22;;
67747;SDS011;54543;50.712;6.070;2023-07-20T00:16:29;2.88;;;1.98;;
67747;SDS011;54543;50.712;6.070;2023-07-20T00:18:54;5.85;;;2.38;;
67747;SDS011;54543;50.712;6.070;2023-07-20T00:21:20;4.35;;;2.38;;
67747;SDS011;54543;50.712;6.070;2023-07-20T00:23:45;3.50;;;2.30;;
67747;SDS011;54543;50.712;6.070;2023-07-20T00:26:11;3.83;;;2.22;;
67747;SDS011;54543;50.712;6.070;2023-07-20T00:28:36;3.90;;;2.35;;
67747;SDS011;54543;50.712;6.070;2023-07-20T00:31:02;4.30;;;2.47;;
67747;SDS011;54543;50.712;6.070;2023-07-20T00:33:28;4.18;;;2.47;;
67747;SDS011;54543;50.712;6.070;2023-07-20T00:35:53;3.83;;;2.00;;
67747;SDS011;54543;50.712;6.070;2023-07-20T00:38:19;3.58;;;2.17;;
67747;SDS011;54543;50.712;6.070;2023-07-20T00:40:45;3.20;;;2.10;;
67747;SDS011;54543;50.712;6.070;2023-07-20T00:43:11;4.50;;;2.67;;
67747;SDS011;54543;50.712;6.070;2023-07-20T00:45:37;4.20;;;2.30;;
67747;SDS011;54543;50.712;6.070;2023-07-20T00:48:04;4.32;;;2.50;;
67747;SDS011;54543;50.712;6.070;2023-07-20T00:50:31;3.50;;;2.15;;
67747;SDS011;54543;50.712;6.070;2023-07-20T00:52:58;3.83;;;2.33;;
67747;SDS011;54543;50.712;6.070;2023-07-20T00:55:24;4.88;;;2.40;;
67747;SDS011;54543;50.712;6.070;2023-07-20T00:57:51;4.65;;;2.85;;
67747;SDS011;54543;50.712;6.070;2023-07-20T01:00:17;4.78;;;2.40;;
67747;SDS011;54543;50.712;6.070;2023-07-20T01:02:43;5.55;;;2.75;;
67747;SDS011;54543;50.712;6.070;2023-07-20T01:05:08;5.60;;;2.38;;
67747;SDS011;54543;50.712;6.070;2023-07-20T01:07:46;3.38;;;2.05;;
67747;SDS011;54543;50.712;6.070;2023-07-20T01:10:46;4.50;;;2.70;;
67747;SDS011;54543;50.712;6.070;2023-07-20T01:13:13;4.63;;;2.20;;
67747;SDS011;54543;50.712;6.070;2023-07-20T01:15:40;3.97;;;2.10;;
67747;SDS011;54543;50.712;6.070;2023-07-20T01:18:05;3.17;;;2.28;;
67747;SDS011;54543;50.712;6.070;2023-07-20T01:20:32;4.35;;;2.05;;
67747;SDS011;54543;50.712;6.070;2023-07-20T01:25:58;3.38;;;2.25;;
67747;SDS011;54543;50.712;6.070;2023-07-20T01:31:28;6.28;;;2.90;;
67747;SDS011;54543;50.712;6.070;2023-07-20T01:33:57;4.50;;;2.50;;
67747;SDS011;54543;50.712;6.070;2023-07-20T01:36:26;3.78;;;2.08;;
67747;SDS011;54543;50.712;6.070;2023-07-20T01:38:55;4.28;;;2.55;;
67747;SDS011;54543;50.712;6.070;2023-07-20T01:41:21;3.58;;;2.10;;
67747;SDS011;54543;50.712;6.070;2023-07-20T01:43:47;3.65;;;2.17;;
67747;SDS011;54543;50.712;6.070;2023-07-20T01:46:13;3.10;;;2.08;;
67747;SDS011;54543;50.712;6.070;2023-07-20T01:48:38;5.57;;;2.40;;
67747;SDS011;54543;50.712;6.070;2023-07-20T01:51:04;4.60;;;2.08;;
67747;SDS011;54543;50.712;6.070;2023-07-20T01:53:29;4.55;;;2.70;;
67747;SDS011;54543;50.712;6.070;2023-07-20T01:55:56;3.95;;;2.40;;
67747;SDS011;54543;50.712;6.070;2023-07-20T01:58:22;6.82;;;2.10;;
67747;SDS011;54543;50.712;6.070;2023-07-20T02:00:48;4.45;;;2.05;;
67747;SDS011;54543;50.712;6.070;2023-07-20T02:03:13;4.65;;;2.80;;
67747;SDS011;54543;50.712;6.070;2023-07-20T02:05:39;3.33;;;1.90;;
67747;SDS011;54543;50.712;6.070;2023-07-20T02:08:07;4.50;;;2.20;;
67747;SDS011;54543;50.712;6.070;2023-07-20T02:10:32;3.15;;;2.00;;
67747;SDS011;54543;50.712;6.070;2023-07-20T02:12:58;3.78;;;2.08;;
67747;SDS011;54543;50.712;6.070;2023-07-20T02:15:24;4.43;;;2.08;;
67747;SDS011;54543;50.712;6.070;2023-07-20T02:17:49;3.60;;;2.17;;
67747;SDS011;54543;50.712;6.070;2023-07-20T02:20:15;3.58;;;1.90;;
67747;SDS011;54543;50.712;6.070;2023-07-20T02:22:40;3.17;;;1.75;;
67747;SDS011;54543;50.712;6.070;2023-07-20T02:25:06;3.25;;;1.85;;
67747;SDS011;54543;50.712;6.070;2023-07-20T02:27:33;3.97;;;2.00;;
67747;SDS011;54543;50.712;6.070;2023-07-20T02:29:59;4.70;;;2.15;;
67747;SDS011;54543;50.712;6.070;2023-07-20T02:32:25;3.83;;;2.13;;
67747;SDS011;54543;50.712;6.070;2023-07-20T02:34:50;4.45;;;2.42;;
67747;SDS011;54543;50.712;6.070;2023-07-20T02:37:16;5.75;;;2.40;;
67747;SDS011;54543;50.712;6.070;2023-07-20T02:39:42;3.00;;;1.95;;
67747;SDS011;54543;50.712;6.070;2023-07-20T02:42:07;3.42;;;1.90;;
67747;SDS011;54543;50.712;6.070;2023-07-20T02:44:33;3.45;;;2.10;;
67747;SDS011;54543;50.712;6.070;2023-07-20T02:46:59;3.03;;;1.95;;
67747;SDS011;54543;50.712;6.070;2023-07-20T02:49:24;4.22;;;2.28;;
67747;SDS011;54543;50.712;6.070;2023-07-20T02:51:50;4.78;;;2.33;;
67747;SDS011;54543;50.712;6.070;2023-07-20T02:54:15;3.47;;;2.13;;
67747;SDS011;54543;50.712;6.070;2023-07-20T02:56:41;4.18;;;2.03;;
67747;SDS011;54543;50.712;6.070;2023-07-20T02:59:06;4.70;;;2.17;;
67747;SDS011;54543;50.712;6.070;2023-07-20T03:01:32;3.40;;;2.10;;
67747;SDS011;54543;50.712;6.070;2023-07-20T03:03:58;4.28;;;2.10;;
67747;SDS011;54543;50.712;6.070;2023-07-20T03:06:23;3.30;;;1.83;;
67747;SDS011;54543;50.712;6.070;2023-07-20T03:08:49;3.28;;;1.95;;
67747;SDS011;54543;50.712;6.070;2023-07-20T03:11:17;3.58;;;2.00;;
67747;SDS011;54543;50.712;6.070;2023-07-20T03:13:44;3.35;;;2.20;;
67747;SDS011;54543;50.712;6.070;2023-07-20T03:16:13;3.45;;;2.03;;
67747;SDS011;54543;50.712;6.070;2023-07-20T03:18:40;5.25;;;2.30;;
67747;SDS011;54543;50.712;6.070;2023-07-20T03:21:07;2.78;;;1.80;;
67747;SDS011;54543;50.712;6.070;2023-07-20T03:23:34;4.18;;;1.90;;
67747;SDS011;54543;50.712;6.070;2023-07-20T03:26:00;3.42;;;1.75;;
67747;SDS011;54543;50.712;6.070;2023-07-20T03:28:25;4.18;;;2.00;;
67747;SDS011;54543;50.712;6.070;2023-07-20T03:30:54;3.30;;;1.98;;
67747;SDS011;54543;50.712;6.070;2023-07-20T03:33:24;4.35;;;2.00;;
67747;SDS011;54543;50.712;6.070;2023-07-20T03:35:51;4.47;;;1.75;;
67747;SDS011;54543;50.712;6.070;2023-07-20T03:38:16;5.25;;;2.28;;
67747;SDS011;54543;50.712;6.070;2023-07-20T03:40:53;4.15;;;1.98;;
67747;SDS011;54543;50.712;6.070;2023-07-20T03:43:19;3.17;;;1.90;;
67747;SDS011;54543;50.712;6.070;2023-07-20T03:45:46;4.25;;;1.90;;
67747;SDS011;54543;50.712;6.070;2023-07-20T03:48:12;3.75;;;2.15;;
67747;SDS011;54543;50.712;6.070;2023-07-20T03:50:39;4.10;;;1.75;;
67747;SDS011;54543;50.712;6.070;2023-07-20T03:53:04;5.05;;;1.88;;
67747;SDS011;54543;50.712;6.070;2023-07-20T03:55:30;4.45;;;2.10;;
67747;SDS011;54543;50.712;6.070;2023-07-20T03:57:55;5.70;;;2.10;;
67747;SDS011;54543;50.712;6.070;2023-07-20T04:00:21;3.60;;;2.03;;
67747;SDS011;54543;50.712;6.070;2023-07-20T04:02:47;7.95;;;2.33;;
67747;SDS011;54543;50.712;6.070;2023-07-20T04:05:12;4.35;;;2.20;;
67747;SDS011;54543;50.712;6.070;2023-07-20T04:07:38;5.93;;;2.45;;
67747;SDS011;54543;50.712;6.070;2023-07-20T04:10:03;7.15;;;3.00;;
67747;SDS011;54543;50.712;6.070;2023-07-20T04:12:29;5.15;;;2.63;;
67747;SDS011;54543;50.712;6.070;2023-07-20T04:14:55;5.75;;;2.60;;
67747;SDS011;54543;50.712;6.070;2023-07-20T04:17:20;4.70;;;2.30;;
67747;SDS011;54543;50.712;6.070;2023-07-20T04:19:46;4.50;;;2.70;;
67747;SDS011;54543;50.712;6.070;2023-07-20T04:22:11;5.32;;;2.40;;
67747;SDS011;54543;50.712;6.070;2023-07-20T04:24:37;5.50;;;2.72;;
67747;SDS011;54543;50.712;6.070;2023-07-20T04:27:02;3.70;;;2.45;;
67747;SDS011;54543;50.712;6.070;2023-07-20T04:29:28;4.28;;;2.20;;
67747;SDS011;54543;50.712;6.070;2023-07-20T04:31:54;6.28;;;2.83;;
67747;SDS011;54543;50.712;6.070;2023-07-20T04:34:19;8.10;;;3.85;;
67747;SDS011;54543;50.712;6.070;2023-07-20T04:36:45;5.78;;;3.80;;
67747;SDS011;54543;50.712;6.070;2023-07-20T04:39:10;5.65;;;3.30;;
67747;SDS011;54543;50.712;6.070;2023-07-20T04:41:37;7.05;;;3.70;;
67747;SDS011;54543;50.712;6.070;2023-07-20T04:44:03;6.10;;;2.80;;
67747;SDS011;54543;50.712;6.070;2023-07-20T04:46:30;4.38;;;2.92;;
67747;SDS011;54543;50.712;6.070;2023-07-20T04:48:59;6.20;;;3.40;;
67747;SDS011;54543;50.712;6.070;2023-07-20T04:51:25;6.68;;;3.13;;
67747;SDS011;54543;50.712;6.070;2023-07-20T04:53:50;6.32;;;2.90;;
67747;SDS011;54543;50.712;6.070;2023-07-20T04:56:16;4.35;;;2.90;;
67747;SDS011;54543;50.712;6.070;2023-07-20T04:58:42;4.93;;;2.63;;
67747;SDS011;54543;50.712;6.070;2023-07-20T05:01:08;4.25;;;2.45;;
67747;SDS011;54543;50.712;6.070;2023-07-20T05:03:33;4.93;;;2.40;;
67747;SDS011;54543;50.712;6.070;2023-07-20T05:05:59;5.30;;;2.30;;
67747;SDS011;54543;50.712;6.070;2023-07-20T05:08:25;4.70;;;2.80;;
67747;SDS011;54543;50.712;6.070;2023-07-20T05:10:50;6.15;;;2.58;;
67747;SDS011;54543;50.712;6.070;2023-07-20T05:13:16;4.78;;;2.85;;
67747;SDS011;54543;50.712;6.070;2023-07-20T05:15:42;5.38;;;3.17;;
67747;SDS011;54543;50.712;6.070;2023-07-20T05:18:08;6.13;;;2.90;;
67747;SDS011;54543;50.712;6.070;2023-07-20T05:20:34;6.97;;;2.80;;
67747;SDS011;54543;50.712;6.070;2023-07-20T05:23:00;5.15;;;2.78;;
67747;SDS011;54543;50.712;6.070;2023-07-20T05:25:26;6.53;;;3.25;;
67747;SDS011;54543;50.712;6.070;2023-07-20T05:27:52;5.72;;;2.92;;
67747;SDS011;54543;50.712;6.070;2023-07-20T05:30:17;4.82;;;2.70;;
67747;SDS011;54543;50.712;6.070;2023-07-20T05:32:44;6.60;;;3.17;;
67747;SDS011;54543;50.712;6.070;2023-07-20T05:35:12;4.88;;;2.70;;
67747;SDS011;54543;50.712;6.070;2023-07-20T05:37:39;5.85;;;2.83;;
67747;SDS011;54543;50.712;6.070;2023-07-20T05:40:05;6.40;;;3.13;;
67747;SDS011;54543;50.712;6.070;2023-07-20T05:42:33;5.25;;;3.17;;
67747;SDS011;54543;50.712;6.070;2023-07-20T05:44:58;7.13;;;3.67;;
67747;SDS011;54543;50.712;6.070;2023-07-20T05:47:24;6.70;;;3.58;;
67747;SDS011;54543;50.712;6.070;2023-07-20T05:49:49;5.40;;;3.13;;
67747;SDS011;54543;50.712;6.070;2023-07-20T05:52:15;9.05;;;3.78;;
67747;SDS011;54543;50.712;6.070;2023-07-20T05:54:41;6.88;;;3.60;;
67747;SDS011;54543;50.712;6.070;2023-07-20T05:57:06;5.90;;;3.47;;
67747;SDS011;54543;50.712;6.070;2023-07-20T05:59:32;5.60;;;3.45;;
67747;SDS011;54543;50.712;6.070;2023-07-20T06:01:58;8.90;;;6.28;;
67747;SDS011;54543;50.712;6.070;2023-07-20T06:04:23;8.07;;;4.55;;
67747;SDS011;54543;50.712;6.070;2023-07-20T06:06:49;6.00;;;3.97;;
67747;SDS011;54543;50.712;6.070;2023-07-20T06:09:15;6.97;;;3.65;;
67747;SDS011;54543;50.712;6.070;2023-07-20T06:11:40;5.40;;;3.85;;
67747;SDS011;54543;50.712;6.070;2023-07-20T06:14:06;6.25;;;3.88;;
67747;SDS011;54543;50.712;6.070;2023-07-20T06:16:31;5.50;;;3.72;;
67747;SDS011;54543;50.712;6.070;2023-07-20T06:18:58;5.78;;;3.65;;
67747;SDS011;54543;50.712;6.070;2023-07-20T06:21:24;7.28;;;4.07;;
67747;SDS011;54543;50.712;6.070;2023-07-20T06:23:50;11.70;;;6.40;;
67747;SDS011;54543;50.712;6.070;2023-07-20T06:26:15;7.25;;;5.03;;
67747;SDS011;54543;50.712;6.070;2023-07-20T06:28:41;5.95;;;4.30;;
67747;SDS011;54543;50.712;6.070;2023-07-20T06:31:06;7.50;;;4.13;;
67747;SDS011;54543;50.712;6.070;2023-07-20T06:33:32;11.13;;;6.35;;
67747;SDS011;54543;50.712;6.070;2023-07-20T06:35:58;10.27;;;5.70;;
67747;SDS011;54543;50.712;6.070;2023-07-20T06:38:23;7.13;;;4.15;;
67747;SDS011;54543;50.712;6.070;2023-07-20T06:40:49;5.85;;;4.55;;
67747;SDS011;54543;50.712;6.070;2023-07-20T06:43:16;5.88;;;4.13;;
67747;SDS011;54543;50.712;6.070;2023-07-20T06:45:41;5.28;;;3.97;;
67747;SDS011;54543;50.712;6.070;2023-07-20T06:48:07;6.47;;;4.68;;
67747;SDS011;54543;50.712;6.070;2023-07-20T06:50:33;5.70;;;4.15;;
67747;SDS011;54543;50.712;6.070;2023-07-20T06:52:59;5.50;;;3.75;;
67747;SDS011;54543;50.712;6.070;2023-07-20T06:55:25;6.13;;;4.07;;
67747;SDS011;54543;50.712;6.070;2023-07-20T06:57:51;7.68;;;5.30;;
67747;SDS011;54543;50.712;6.070;2023-07-20T07:00:17;8.25;;;4.35;;
67747;SDS011;54543;50.712;6.070;2023-07-20T07:02:43;6.72;;;4.22;;
67747;SDS011;54543;50.712;6.070;2023-07-20T07:05:08;8.40;;;4.97;;
67747;SDS011;54543;50.712;6.070;2023-07-20T07:07:34;7.45;;;4.03;;
67747;SDS011;54543;50.712;6.070;2023-07-20T07:10:00;5.30;;;4.20;;
67747;SDS011;54543;50.712;6.070;2023-07-20T07:12:27;6.60;;;4.85;;
67747;SDS011;54543;50.712;6.070;2023-07-20T07:14:53;7.15;;;4.32;;
67747;SDS011;54543;50.712;6.070;2023-07-20T07:17:18;6.55;;;4.80;;
67747;SDS011;54543;50.712;6.070;2023-07-20T07:19:44;5.30;;;4.22;;
67747;SDS011;54543;50.712;6.070;2023-07-20T07:22:10;8.13;;;5.35;;
67747;SDS011;54543;50.712;6.070;2023-07-20T07:24:36;6.80;;;5.10;;
67747;SDS011;54543;50.712;6.070;2023-07-20T07:27:02;6.60;;;5.05;;
67747;SDS011;54543;50.712;6.070;2023-07-20T07:29:29;6.43;;;4.15;;
67747;SDS011;54543;50.712;6.070;2023-07-20T07:31:55;6.13;;;4.35;;
67747;SDS011;54543;50.712;6.070;2023-07-20T07:34:20;6.25;;;4.60;;
67747;SDS011;54543;50.712;6.070;2023-07-20T07:36:46;4.45;;;3.28;;
67747;SDS011;54543;50.712;6.070;2023-07-20T07:39:12;4.60;;;3.55;;
67747;SDS011;54543;50.712;6.070;2023-07-20T07:41:38;4.88;;;3.70;;
67747;SDS011;54543;50.712;6.070;2023-07-20T07:44:03;5.85;;;4.90;;
67747;SDS011;54543;50.712;6.070;2023-07-20T07:46:29;8.95;;;6.28;;
67747;SDS011;54543;50.712;6.070;2023-07-20T07:48:54;5.70;;;4.63;;
67747;SDS011;54543;50.712;6.070;2023-07-20T07:51:20;5.90;;;4.53;;
67747;SDS011;54543;50.712;6.070;2023-07-20T07:53:46;6.47;;;4.40;;
67747;SDS011;54543;50.712;6.070;2023-07-20T07:56:11;6.88;;;4.60;;
67747;SDS011;54543;50.712;6.070;2023-07-20T07:58:37;4.88;;;3.75;;
67747;SDS011;54543;50.712;6.070;2023-07-20T08:01:03;6.30;;;4.00;;
67747;SDS011;54543;50.712;6.070;2023-07-20T08:03:29;6.35;;;4.47;;
67747;SDS011;54543;50.712;6.070;2023-07-20T08:05:55;5.82;;;3.63;;
67747;SDS011;54543;50.712;6.070;2023-07-20T08:08:21;5.78;;;4.50;;
67747;SDS011;54543;50.712;6.070;2023-07-20T08:10:47;5.32;;;3.95;;
67747;SDS011;54543;50.712;6.070;2023-07-20T08:13:13;4.55;;;3.83;;
67747;SDS011;54543;50.712;6.070;2023-07-20T08:15:39;7.47;;;4.90;;
67747;SDS011;54543;50.712;6.070;2023-07-20T08:18:11;5.82;;;4.00;;
67747;SDS011;54543;50.712;6.070;2023-07-20T08:20:36;6.22;;;4.03;;
67747;SDS011;54543;50.712;6.070;2023-07-20T08:23:02;5.28;;;4.10;;
67747;SDS011;54543;50.712;6.070;2023-07-20T08:25:28;6.55;;;4.65;;
67747;SDS011;54543;50.712;6.070;2023-07-20T08:27:53;6.07;;;3.75;;
67747;SDS011;54543;50.712;6.070;2023-07-20T08:30:21;5.13;;;3.55;;
67747;SDS011;54543;50.712;6.070;2023-07-20T08:32:48;4.38;;;3.13;;
67747;SDS011;54543;50.712;6.070;2023-07-20T08:35:14;4.30;;;2.92;;
67747;SDS011;54543;50.712;6.070;2023-07-20T08:37:40;3.58;;;2.88;;
67747;SDS011;54543;50.712;6.070;2023-07-20T08:40:06;4.88;;;3.53;;
67747;SDS011;54543;50.712;6.070;2023-07-20T08:42:33;4.35;;;3.13;;
67747;SDS011;54543;50.712;6.070;2023-07-20T08:45:00;4.57;;;3.45;;
67747;SDS011;54543;50.712;6.070;2023-07-20T08:47:33;6.43;;;3.65;;
67747;SDS011;54543;50.712;6.070;2023-07-20T08:49:59;3.13;;;2.50;;
67747;SDS011;54543;50.712;6.070;2023-07-20T08:52:25;4.50;;;3.63;;
67747;SDS011;54543;50.712;6.070;2023-07-20T08:54:51;4.18;;;3.10;;
67747;SDS011;54543;50.712;6.070;2023-07-20T08:57:18;3.88;;;3.05;;
67747;SDS011;54543;50.712;6.070;2023-07-20T08:59:46;4.95;;;3.60;;
67747;SDS011;54543;50.712;6.070;2023-07-20T09:02:14;4.03;;;3.20;;
67747;SDS011;54543;50.712;6.070;2023-07-20T09:04:43;6.25;;;3.70;;
67747;SDS011;54543;50.712;6.070;2023-07-20T09:07:09;6.07;;;3.88;;
67747;SDS011;54543;50.712;6.070;2023-07-20T09:09:39;4.20;;;2.80;;
67747;SDS011;54543;50.712;6.070;2023-07-20T09:12:12;4.53;;;3.03;;
67747;SDS011;54543;50.712;6.070;2023-07-20T09:14:38;4.18;;;2.95;;
67747;SDS011;54543;50.712;6.070;2023-07-20T09:17:04;5.10;;;3.25;;
67747;SDS011;54543;50.712;6.070;2023-07-20T09:19:30;4.53;;;3.72;;
67747;SDS011;54543;50.712;6.070;2023-07-20T09:21:55;3.22;;;2.63;;
67747;SDS011;54543;50.712;6.070;2023-07-20T09:24:21;4.25;;;2.63;;
67747;SDS011;54543;50.712;6.070;2023-07-20T09:26:48;3.35;;;2.17;;
67747;SDS011;54543;50.712;6.070;2023-07-20T09:29:14;3.03;;;2.13;;
67747;SDS011;54543;50.712;6.070;2023-07-20T09:31:43;4.38;;;2.80;;
67747;SDS011;54543;50.712;6.070;2023-07-20T09:34:24;2.47;;;2.25;;
67747;SDS011;54543;50.712;6.070;2023-07-20T09:36:50;4.72;;;3.05;;
67747;SDS011;54543;50.712;6.070;2023-07-20T09:39:16;2.63;;;1.90;;
67747;SDS011;54543;50.712;6.070;2023-07-20T09:41:42;4.22;;;2.13;;
67747;SDS011;54543;50.712;6.070;2023-07-20T09:44:07;3.45;;;2.42;;
67747;SDS011;54543;50.712;6.070;2023-07-20T09:46:45;3.22;;;2.47;;
67747;SDS011;54543;50.712;6.070;2023-07-20T09:49:14;3.22;;;2.30;;
67747;SDS011;54543;50.712;6.070;2023-07-20T09:51:42;4.07;;;2.60;;
67747;SDS011;54543;50.712;6.070;2023-07-20T09:54:09;3.35;;;2.13;;
67747;SDS011;54543;50.712;6.070;2023-07-20T09:56:36;2.75;;;1.92;;
67747;SDS011;54543;50.712;6.070;2023-07-20T09:59:04;2.40;;;2.10;;
67747;SDS011;54543;50.712;6.070;2023-07-20T10:01:29;3.28;;;2.22;;
67747;SDS011;54543;50.712;6.070;2023-07-20T10:03:58;3.28;;;2.60;;
67747;SDS011;54543;50.712;6.070;2023-07-20T10:06:26;2.72;;;2.05;;
67747;SDS011;54543;50.712;6.070;2023-07-20T10:08:55;3.10;;;2.15;;
67747;SDS011;54543;50.712;6.070;2023-07-20T10:11:22;4.22;;;2.53;;
67747;SDS011;54543;50.712;6.070;2023-07-20T10:13:51;4.22;;;2.25;;
67747;SDS011;54543;50.712;6.070;2023-07-20T10:16:26;2.28;;;1.77;;
67747;SDS011;54543;50.712;6.070;2023-07-20T10:21:28;3.58;;;2.35;;
67747;SDS011;54543;50.712;6.070;2023-07-20T10:23:57;2.22;;;1.70;;
67747;SDS011;54543;50.712;6.070;2023-07-20T10:26:25;3.15;;;2.17;;
67747;SDS011;54543;50.712;6.070;2023-07-20T10:28:51;2.75;;;1.98;;
67747;SDS011;54543;50.712;6.070;2023-07-20T10:31:17;2.67;;;2.10;;
67747;SDS011;54543;50.712;6.070;2023-07-20T10:33:43;2.85;;;1.90;;
67747;SDS011;54543;50.712;6.070;2023-07-20T10:36:10;2.13;;;1.63;;
67747;SDS011;54543;50.712;6.070;2023-07-20T10:41:28;3.15;;;2.15;;
67747;SDS011;54543;50.712;6.070;2023-07-20T10:43:59;2.83;;;1.58;;
67747;SDS011;54543;50.712;6.070;2023-07-20T10:49:07;3.35;;;2.40;;
67747;SDS011;54543;50.712;6.070;2023-07-20T10:56:42;2.15;;;1.70;;
67747;SDS011;54543;50.712;6.070;2023-07-20T10:59:19;2.17;;;1.67;;
67747;SDS011;54543;50.712;6.070;2023-07-20T11:02:02;2.55;;;1.80;;
67747;SDS011;54543;50.712;6.070;2023-07-20T11:04:38;3.13;;;1.60;;
67747;SDS011;54543;50.712;6.070;2023-07-20T11:07:08;2.10;;;1.70;;
67747;SDS011;54543;50.712;6.070;2023-07-20T11:09:34;2.10;;;1.60;;
67747;SDS011;54543;50.712;6.070;2023-07-20T11:14:39;3.60;;;2.10;;
67747;SDS011;54543;50.712;6.070;2023-07-20T11:17:15;2.63;;;1.80;;
67747;SDS011;54543;50.712;6.070;2023-07-20T11:19:47;2.35;;;1.77;;
67747;SDS011;54543;50.712;6.070;2023-07-20T11:22:13;3.75;;;2.08;;
67747;SDS011;54543;50.712;6.070;2023-07-20T11:24:42;3.63;;;2.50;;
67747;SDS011;54543;50.712;6.070;2023-07-20T11:27:08;2.53;;;1.77;;
67747;SDS011;54543;50.712;6.070;2023-07-20T11:29:34;3.25;;;2.40;;
67747;SDS011;54543;50.712;6.070;2023-07-20T11:32:01;1.83;;;1.65;;
67747;SDS011;54543;50.712;6.070;2023-07-20T11:34:29;2.67;;;1.85;;
67747;SDS011;54543;50.712;6.070;2023-07-20T11:36:56;2.35;;;1.70;;
67747;SDS011;54543;50.712;6.070;2023-07-20T11:39:22;4.80;;;2.10;;
67747;SDS011;54543;50.712;6.070;2023-07-20T11:41:54;2.60;;;2.15;;
67747;SDS011;54543;50.712;6.070;2023-07-20T11:44:22;2.53;;;1.60;;
67747;SDS011;54543;50.712;6.070;2023-07-20T11:49:30;1.88;;;1.50;;
67747;SDS011;54543;50.712;6.070;2023-07-20T11:52:00;1.80;;;1.55;;
67747;SDS011;54543;50.712;6.070;2023-07-20T11:54:25;1.90;;;1.70;;
67747;SDS011;54543;50.712;6.070;2023-07-20T11:56:55;1.98;;;1.55;;
67747;SDS011;54543;50.712;6.070;2023-07-20T11:59:21;2.70;;;1.58;;
67747;SDS011;54543;50.712;6.070;2023-07-20T12:01:47;2.88;;;1.65;;
67747;SDS011;54543;50.712;6.070;2023-07-20T12:04:12;2.10;;;1.60;;
67747;SDS011;54543;50.712;6.070;2023-07-20T12:06:38;1.85;;;1.50;;
67747;SDS011;54543;50.712;6.070;2023-07-20T12:09:04;2.03;;;1.63;;
67747;SDS011;54543;50.712;6.070;2023-07-20T12:11:36;3.40;;;1.98;;
67747;SDS011;54543;50.712;6.070;2023-07-20T12:14:03;2.30;;;1.70;;
67747;SDS011;54543;50.712;6.070;2023-07-20T12:16:29;1.65;;;1.35;;
67747;SDS011;54543;50.712;6.070;2023-07-20T12:18:59;3.80;;;1.67;;
67747;SDS011;54543;50.712;6.070;2023-07-20T12:21:26;1.75;;;1.30;;
67747;SDS011;54543;50.712;6.070;2023-07-20T12:23:51;2.25;;;1.50;;
67747;SDS011;54543;50.712;6.070;2023-07-20T12:26:17;2.28;;;1.48;;
67747;SDS011;54543;50.712;6.070;2023-07-20T12:28:42;2.75;;;1.50;;
67747;SDS011;54543;50.712;6.070;2023-07-20T12:31:08;2.00;;;1.50;;
67747;SDS011;54543;50.712;6.070;2023-07-20T12:33:36;1.45;;;1.30;;
67747;SDS011;54543;50.712;6.070;2023-07-20T12:36:03;1.90;;;1.40;;
67747;SDS011;54543;50.712;6.070;2023-07-20T12:38:29;1.80;;;1.60;;
67747;SDS011;54543;50.712;6.070;2023-07-20T12:40:59;2.13;;;1.60;;
67747;SDS011;54543;50.712;6.070;2023-07-20T12:43:26;3.00;;;1.58;;
67747;SDS011;54543;50.712;6.070;2023-07-20T12:45:52;2.90;;;1.77;;
67747;SDS011;54543;50.712;6.070;2023-07-20T12:48:18;2.08;;;1.73;;
67747;SDS011;54543;50.712;6.070;2023-07-20T12:50:44;2.03;;;1.80;;
67747;SDS011;54543;50.712;6.070;2023-07-20T12:53:09;4.93;;;2.78;;
67747;SDS011;54543;50.712;6.070;2023-07-20T12:55:35;8.07;;;2.30;;
67747;SDS011;54543;50.712;6.070;2023-07-20T12:58:02;2.55;;;1.85;;
67747;SDS011;54543;50.712;6.070;2023-07-20T13:00:28;2.10;;;1.60;;
67747;SDS011;54543;50.712;6.070;2023-07-20T13:02:53;1.63;;;1.40;;
67747;SDS011;54543;50.712;6.070;2023-07-20T13:05:19;1.25;;;1.15;;
67747;SDS011;54543;50.712;6.070;2023-07-20T13:07:44;2.10;;;1.42;;
67747;SDS011;54543;50.712;6.070;2023-07-20T13:10:11;2.58;;;1.30;;
67747;SDS011;54543;50.712;6.070;2023-07-20T13:12:37;2.35;;;1.30;;
67747;SDS011;54543;50.712;6.070;2023-07-20T13:15:04;1.50;;;1.25;;
67747;SDS011;54543;50.712;6.070;2023-07-20T13:17:32;1.38;;;1.20;;
67747;SDS011;54543;50.712;6.070;2023-07-20T13:19:58;1.83;;;1.23;;
67747;SDS011;54543;50.712;6.070;2023-07-20T13:22:24;1.55;;;1.35;;
67747;SDS011;54543;50.712;6.070;2023-07-20T13:24:49;2.78;;;1.50;;
67747;SDS011;54543;50.712;6.070;2023-07-20T13:27:19;1.40;;;1.10;;
67747;SDS011;54543;50.712;6.070;2023-07-20T13:29:44;1.58;;;1.40;;
67747;SDS011;54543;50.712;6.070;2023-07-20T13:32:12;3.00;;;1.80;;
67747;SDS011;54543;50.712;6.070;2023-07-20T13:34:39;2.25;;;2.05;;
67747;SDS011;54543;50.712;6.070;2023-07-20T13:37:05;2.25;;;1.58;;
67747;SDS011;54543;50.712;6.070;2023-07-20T13:39:31;2.00;;;1.50;;
67747;SDS011;54543;50.712;6.070;2023-07-20T13:41:56;1.90;;;1.40;;
67747;SDS011;54543;50.712;6.070;2023-07-20T13:44:22;1.25;;;1.08;;
67747;SDS011;54543;50.712;6.070;2023-07-20T13:46:48;3.00;;;1.15;;
67747;SDS011;54543;50.712;6.070;2023-07-20T13:49:13;1.30;;;1.20;;
67747;SDS011;54543;50.712;6.070;2023-07-20T13:51:39;1.30;;;1.08;;
67747;SDS011;54543;50.712;6.070;2023-07-20T13:54:06;1.52;;;1.05;;
67747;SDS011;54543;50.712;6.070;2023-07-20T13:56:32;1.17;;;1.08;;
67747;SDS011;54543;50.712;6.070;2023-07-20T13:58:58;1.52;;;1.20;;
67747;SDS011;54543;50.712;6.070;2023-07-20T14:01:23;1.83;;;1.20;;
67747;SDS011;54543;50.712;6.070;2023-07-20T14:03:50;1.45;;;1.27;;
67747;SDS011;54543;50.712;6.070;2023-07-20T14:06:16;1.65;;;1.08;;
67747;SDS011;54543;50.712;6.070;2023-07-20T14:08:42;2.70;;;1.42;;
67747;SDS011;54543;50.712;6.070;2023-07-20T14:11:11;1.42;;;1.17;;
67747;SDS011;54543;50.712;6.070;2023-07-20T14:13:39;1.45;;;1.27;;
67747;SDS011;54543;50.712;6.070;2023-07-20T14:16:05;1.60;;;1.25;;
67747;SDS011;54543;50.712;6.070;2023-07-20T14:18:31;1.85;;;1.23;;
67747;SDS011;54543;50.712;6.070;2023-07-20T14:20:56;1.40;;;1.30;;
67747;SDS011;54543;50.712;6.070;2023-07-20T14:23:22;2.90;;;1.60;;
67747;SDS011;54543;50.712;6.070;2023-07-20T14:25:48;1.42;;;1.23;;
67747;SDS011;54543;50.712;6.070;2023-07-20T14:28:15;2.63;;;1.85;;
67747;SDS011;54543;50.712;6.070;2023-07-20T14:30:41;3.55;;;2.58;;
67747;SDS011;54543;50.712;6.070;2023-07-20T14:33:06;2.25;;;1.80;;
67747;SDS011;54543;50.712;6.070;2023-07-20T14:35:33;1.80;;;1.52;;
67747;SDS011;54543;50.712;6.070;2023-07-20T14:37:59;2.88;;;2.22;;
67747;SDS011;54543;50.712;6.070;2023-07-20T14:40:25;8.10;;;4.20;;
67747;SDS011;54543;50.712;6.070;2023-07-20T14:42:51;3.40;;;2.15;;
67747;SDS011;54543;50.712;6.070;2023-07-20T14:45:17;2.45;;;1.70;;
67747;SDS011;54543;50.712;6.070;2023-07-20T14:47:43;1.80;;;1.50;;
67747;SDS011;54543;50.712;6.070;2023-07-20T14:50:10;3.22;;;2.20;;
67747;SDS011;54543;50.712;6.070;2023-07-20T14:52:35;3.78;;;2.38;;
67747;SDS011;54543;50.712;6.070;2023-07-20T14:55:01;3.53;;;2.10;;
67747;SDS011;54543;50.712;6.070;2023-07-20T14:57:27;2.45;;;1.50;;
67747;SDS011;54543;50.712;6.070;2023-07-20T14:59:52;5.45;;;3.78;;
67747;SDS011;54543;50.712;6.070;2023-07-20T15:02:18;2.50;;;1.70;;
67747;SDS011;54543;50.712;6.070;2023-07-20T15:04:47;2.78;;;2.13;;
67747;SDS011;54543;50.712;6.070;2023-07-20T15:07:15;1.58;;;1.00;;
67747;SDS011;54543;50.712;6.070;2023-07-20T15:09:41;1.42;;;1.20;;